createdAt,value
2018-04-19T00:00:07.306Z,13.37
2018-04-19T00:01:07.353Z,13.18
2018-04-19T00:02:07.379Z,13.21
2018-04-19T00:03:07.432Z,13.14
2018-04-19T00:04:07.477Z,13.09
2018-04-19T00:05:07.524Z,13.03
2018-04-19T00:06:07.602Z,13.02
2018-04-19T00:07:07.648Z,12.92
2018-04-19T00:08:07.671Z,13.00
2018-04-19T00:09:07.721Z,12.99
2018-04-19T00:10:07.772Z,12.99
2018-04-19T00:11:07.818Z,13.09
2018-04-19T00:12:07.891Z,13.12
2018-04-19T00:13:07.917Z,13.18
2018-04-19T00:14:07.965Z,13.27
2018-04-19T00:15:08.014Z,13.33
2018-04-19T00:16:08.066Z,13.43
2018-04-19T00:17:08.136Z,13.44
2018-04-19T00:18:08.174Z,13.58
2018-04-19T00:19:08.205Z,13.67
2018-04-19T00:20:08.259Z,13.70
2018-04-19T00:21:08.305Z,13.67
2018-04-19T00:22:08.385Z,13.67
2018-04-19T00:23:08.401Z,13.77
2018-04-19T00:24:08.454Z,13.80
2018-04-19T00:25:08.516Z,13.88
2018-04-19T00:26:08.548Z,13.94
2018-04-19T00:27:08.634Z,13.92
2018-04-19T00:28:08.647Z,13.84
2018-04-19T00:29:08.691Z,13.88
2018-04-19T00:30:08.742Z,13.89
2018-04-19T00:31:08.789Z,13.83
2018-04-19T00:32:08.871Z,13.98
2018-04-19T00:33:08.891Z,13.98
2018-04-19T00:34:08.950Z,13.92
2018-04-19T00:35:08.986Z,13.94
2018-04-19T00:36:09.036Z,13.89
2018-04-19T00:37:09.108Z,13.83
2018-04-19T00:38:09.154Z,13.77
2018-04-19T00:39:09.180Z,13.69
2018-04-19T00:40:09.232Z,13.63
2018-04-19T00:41:09.278Z,13.51
2018-04-19T00:42:09.326Z,13.41
2018-04-19T00:43:09.411Z,13.46
2018-04-19T00:44:09.423Z,13.47
2018-04-19T00:45:09.472Z,13.40
2018-04-19T00:46:09.522Z,13.22
2018-04-19T00:47:09.569Z,13.22
2018-04-19T00:48:09.650Z,13.22
2018-04-19T00:49:09.666Z,13.04
2018-04-19T00:50:09.720Z,12.97
2018-04-19T00:51:09.766Z,13.02
2018-04-19T00:52:09.814Z,13.00
2018-04-19T00:53:09.893Z,12.99
2018-04-19T00:54:09.910Z,13.02
2018-04-19T00:55:09.961Z,12.93
2018-04-19T00:56:10.017Z,12.99
2018-04-19T00:57:10.057Z,13.04
2018-04-19T00:58:10.139Z,12.96
2018-04-19T00:59:10.152Z,12.97
2018-04-19T01:00:10.200Z,12.93
2018-04-19T01:01:10.251Z,12.95
2018-04-19T01:02:10.299Z,13.00
2018-04-19T01:03:10.369Z,12.97
2018-04-19T01:04:10.416Z,13.00
2018-04-19T01:05:10.443Z,13.07
2018-04-19T01:06:10.499Z,13.12
2018-04-19T01:07:10.541Z,13.14
2018-04-19T01:08:10.590Z,13.21
2018-04-19T01:09:10.674Z,13.30
2018-04-19T01:10:10.692Z,13.25
2018-04-19T01:11:10.733Z,13.27
2018-04-19T01:12:10.782Z,13.30
2018-04-19T01:13:10.832Z,13.32
2018-04-19T01:14:10.936Z,13.29
2018-04-19T01:15:10.937Z,13.24
2018-04-19T01:16:10.981Z,13.32
2018-04-19T01:17:11.028Z,13.36
2018-04-19T01:18:11.074Z,13.21
2018-04-19T01:19:11.148Z,13.18
2018-04-19T01:20:11.194Z,13.22
2018-04-19T01:21:11.218Z,13.27
2018-04-19T01:22:11.268Z,13.21
2018-04-19T01:23:11.315Z,13.30
2018-04-19T01:24:11.366Z,13.37
2018-04-19T01:25:11.435Z,13.27
2018-04-19T01:26:11.462Z,13.21
2018-04-19T01:27:11.511Z,13.06
2018-04-19T01:28:11.558Z,12.99
2018-04-19T01:29:11.608Z,13.00
2018-04-19T01:30:11.696Z,13.00
2018-04-19T01:31:11.705Z,12.96
2018-04-19T01:32:11.756Z,12.96
2018-04-19T01:33:11.801Z,12.88
2018-04-19T01:34:11.861Z,12.85
2018-04-19T01:35:11.929Z,12.96
2018-04-19T01:36:11.945Z,12.81
2018-04-19T01:37:11.994Z,12.81
2018-04-19T01:38:12.043Z,12.84
2018-04-19T01:39:12.090Z,12.81
2018-04-19T01:40:12.168Z,12.79
2018-04-19T01:41:12.191Z,12.77
2018-04-19T01:42:12.240Z,12.79
2018-04-19T01:43:12.283Z,12.77
2018-04-19T01:44:12.332Z,12.74
2018-04-19T01:45:12.406Z,12.78
2018-04-19T01:46:12.429Z,12.79
2018-04-19T01:47:12.502Z,12.75
2018-04-19T01:48:12.527Z,12.74
2018-04-19T01:49:12.576Z,12.67
2018-04-19T01:50:12.623Z,12.66
2018-04-19T01:51:12.714Z,12.56
2018-04-19T01:52:12.721Z,12.60
2018-04-19T01:53:12.768Z,12.46
2018-04-19T01:54:12.817Z,12.51
2018-04-19T01:55:12.865Z,12.54
2018-04-19T01:56:12.939Z,12.44
2018-04-19T01:57:12.985Z,12.49
2018-04-19T01:58:13.014Z,12.46
2018-04-19T01:59:13.058Z,12.45
2018-04-19T02:00:13.107Z,12.51
2018-04-19T02:01:13.155Z,12.62
2018-04-19T02:02:13.238Z,12.66
2018-04-19T02:03:13.251Z,12.81
2018-04-19T02:04:13.301Z,12.81
2018-04-19T02:05:13.346Z,12.71
2018-04-19T02:06:13.396Z,12.78
2018-04-19T02:07:13.497Z,12.78
2018-04-19T02:08:13.523Z,12.82
2018-04-19T02:09:13.540Z,12.77
2018-04-19T02:10:13.592Z,12.79
2018-04-19T02:11:13.637Z,12.70
2018-04-19T02:12:13.684Z,12.62
2018-04-19T02:13:13.756Z,12.60
2018-04-19T02:14:13.783Z,12.51
2018-04-19T02:15:13.830Z,12.54
2018-04-19T02:16:13.877Z,12.52
2018-04-19T02:17:13.925Z,12.54
2018-04-19T02:18:14.002Z,12.39
2018-04-19T02:19:14.075Z,12.33
2018-04-19T02:20:14.069Z,12.39
2018-04-19T02:21:14.125Z,12.30
2018-04-19T02:22:14.166Z,12.24
2018-04-19T02:23:14.240Z,12.19
2018-04-19T02:24:14.290Z,12.16
2018-04-19T02:25:14.311Z,12.09
2018-04-19T02:26:14.359Z,11.99
2018-04-19T02:27:14.407Z,11.99
2018-04-19T02:28:14.475Z,11.89
2018-04-19T02:29:14.530Z,11.85
2018-04-19T02:30:14.551Z,11.77
2018-04-19T02:31:14.598Z,11.74
2018-04-19T02:32:14.647Z,11.54
2018-04-19T02:33:14.695Z,11.62
2018-04-19T02:34:14.772Z,11.59
2018-04-19T02:35:14.817Z,11.43
2018-04-19T02:36:14.839Z,11.29
2018-04-19T02:37:14.887Z,11.32
2018-04-19T02:38:14.943Z,11.17
2018-04-19T02:39:14.987Z,11.19
2018-04-19T02:40:15.052Z,11.11
2018-04-19T02:41:15.080Z,11.11
2018-04-19T02:42:15.128Z,11.09
2018-04-19T02:43:15.172Z,11.07
2018-04-19T02:44:15.224Z,11.02
2018-04-19T02:45:15.300Z,10.99
2018-04-19T02:46:15.317Z,10.99
2018-04-19T02:47:15.364Z,10.92
2018-04-19T02:48:15.413Z,10.95
2018-04-19T02:49:15.459Z,10.95
2018-04-19T02:50:15.544Z,10.94
2018-04-19T02:51:15.568Z,10.88
2018-04-19T02:52:15.606Z,10.78
2018-04-19T02:53:15.651Z,10.84
2018-04-19T02:54:15.699Z,10.80
2018-04-19T02:55:15.772Z,10.71
2018-04-19T02:56:15.816Z,10.73
2018-04-19T02:57:15.845Z,10.83
2018-04-19T02:58:15.894Z,10.76
2018-04-19T02:59:15.936Z,10.76
2018-04-19T03:00:15.984Z,10.70
2018-04-19T03:01:16.056Z,10.60
2018-04-19T03:02:16.082Z,10.63
2018-04-19T03:03:16.128Z,10.63
2018-04-19T03:04:16.173Z,10.63
2018-04-19T03:05:16.221Z,10.58
2018-04-19T03:06:16.293Z,10.53
2018-04-19T03:07:16.339Z,10.46
2018-04-19T03:08:16.362Z,10.43
2018-04-19T03:09:16.411Z,10.42
2018-04-19T03:10:16.459Z,10.43
2018-04-19T03:11:16.530Z,10.36
2018-04-19T03:12:16.552Z,10.37
2018-04-19T03:13:16.600Z,10.37
2018-04-19T03:14:16.646Z,10.33
2018-04-19T03:15:16.693Z,10.28
2018-04-19T03:16:16.765Z,10.24
2018-04-19T03:17:16.811Z,10.25
2018-04-19T03:18:16.837Z,10.25
2018-04-19T03:19:16.883Z,10.22
2018-04-19T03:20:16.929Z,10.14
2018-04-19T03:21:16.985Z,10.15
2018-04-19T03:22:17.062Z,10.15
2018-04-19T03:23:17.079Z,10.14
2018-04-19T03:24:17.119Z,10.07
2018-04-19T03:25:17.170Z,10.03
2018-04-19T03:26:17.216Z,10.07
2018-04-19T03:27:17.291Z,10.07
2018-04-19T03:28:17.308Z,10.15
2018-04-19T03:29:17.358Z,10.07
2018-04-19T03:30:17.406Z,10.07
2018-04-19T03:31:17.450Z,10.06
2018-04-19T03:32:17.520Z,10.00
2018-04-19T03:33:17.572Z,10.10
2018-04-19T03:34:17.592Z,10.06
2018-04-19T03:35:17.637Z,10.12
2018-04-19T03:36:17.686Z,10.14
2018-04-19T03:37:17.736Z,10.09
2018-04-19T03:38:17.812Z,10.06
2018-04-19T03:39:17.827Z,10.03
2018-04-19T03:40:17.874Z,10.03
2018-04-19T03:41:17.922Z,9.97
2018-04-19T03:42:17.968Z,9.97
2018-04-19T03:43:18.038Z,9.96
2018-04-19T03:44:18.085Z,10.06
2018-04-19T03:45:18.111Z,10.04
2018-04-19T03:46:18.156Z,9.97
2018-04-19T03:47:18.203Z,9.93
2018-04-19T03:48:18.256Z,9.93
2018-04-19T03:49:18.322Z,9.89
2018-04-19T03:50:18.344Z,9.91
2018-04-19T03:51:18.390Z,9.91
2018-04-19T03:52:18.438Z,10.01
2018-04-19T03:53:18.486Z,9.89
2018-04-19T03:54:18.560Z,9.85
2018-04-19T03:55:18.602Z,9.89
2018-04-19T03:56:18.625Z,9.88
2018-04-19T03:57:18.672Z,9.82
2018-04-19T03:58:18.720Z,9.83
2018-04-19T03:59:18.791Z,9.86
2018-04-19T04:00:18.822Z,9.76
2018-04-19T04:01:18.917Z,9.81
2018-04-19T04:02:18.909Z,9.76
2018-04-19T04:03:18.953Z,9.75
2018-04-19T04:04:19.005Z,9.81
2018-04-19T04:05:19.047Z,9.76
2018-04-19T04:06:19.120Z,9.76
2018-04-19T04:07:19.140Z,9.66
2018-04-19T04:08:19.188Z,9.66
2018-04-19T04:09:19.237Z,9.64
2018-04-19T04:10:19.283Z,9.60
2018-04-19T04:11:19.353Z,9.56
2018-04-19T04:12:19.377Z,9.48
2018-04-19T04:13:19.423Z,9.42
2018-04-19T04:14:19.475Z,9.38
2018-04-19T04:15:19.550Z,9.27
2018-04-19T04:16:19.564Z,9.16
2018-04-19T04:17:19.608Z,9.16
2018-04-19T04:18:19.658Z,8.93
2018-04-19T04:19:19.705Z,8.86
2018-04-19T04:20:19.779Z,8.84
2018-04-19T04:21:19.797Z,8.84
2018-04-19T04:22:19.842Z,8.84
2018-04-19T04:23:19.891Z,8.73
2018-04-19T04:24:19.939Z,8.73
2018-04-19T04:25:20.007Z,8.65
2018-04-19T04:26:20.029Z,8.79
2018-04-19T04:27:20.102Z,8.86
2018-04-19T04:28:20.121Z,8.86
2018-04-19T04:29:20.172Z,8.81
2018-04-19T04:30:20.260Z,8.79
2018-04-19T04:31:20.281Z,8.84
2018-04-19T04:32:20.313Z,8.73
2018-04-19T04:33:20.356Z,8.73
2018-04-19T04:34:20.403Z,8.62
2018-04-19T04:35:20.523Z,8.60
2018-04-19T04:36:20.496Z,8.44
2018-04-19T04:37:20.541Z,8.53
2018-04-19T04:38:20.589Z,8.42
2018-04-19T04:39:20.652Z,8.51
2018-04-19T04:40:20.708Z,8.54
2018-04-19T04:41:20.729Z,8.51
2018-04-19T04:42:20.773Z,8.48
2018-04-19T04:43:20.820Z,8.58
2018-04-19T04:44:20.891Z,8.51
2018-04-19T04:45:20.912Z,8.53
2018-04-19T04:46:20.961Z,8.54
2018-04-19T04:47:21.006Z,8.60
2018-04-19T04:48:21.050Z,8.62
2018-04-19T04:49:21.121Z,8.68
2018-04-19T04:50:21.144Z,8.58
2018-04-19T04:51:21.213Z,8.63
2018-04-19T04:52:21.235Z,8.62
2018-04-19T04:53:21.283Z,8.78
2018-04-19T04:54:21.353Z,8.72
2018-04-19T04:55:21.376Z,8.76
2018-04-19T04:56:21.465Z,8.68
2018-04-19T04:57:21.470Z,8.76
2018-04-19T04:58:21.518Z,8.75
2018-04-19T04:59:21.560Z,8.73
2018-04-19T05:00:21.610Z,8.84
2018-04-19T05:01:21.676Z,8.81
2018-04-19T05:02:21.701Z,8.75
2018-04-19T05:03:21.747Z,8.73
2018-04-19T05:04:21.792Z,8.66
2018-04-19T05:05:21.866Z,8.58
2018-04-19T05:06:21.886Z,8.53
2018-04-19T05:07:21.960Z,8.54
2018-04-19T05:08:21.982Z,8.45
2018-04-19T05:09:22.029Z,8.45
2018-04-19T05:10:22.094Z,8.42
2018-04-19T05:11:22.119Z,8.33
2018-04-19T05:12:22.203Z,8.32
2018-04-19T05:13:22.209Z,8.42
2018-04-19T05:14:22.256Z,8.51
2018-04-19T05:15:22.307Z,8.58
2018-04-19T05:16:22.381Z,8.69
2018-04-19T05:17:22.423Z,8.76
2018-04-19T05:18:22.440Z,8.86
2018-04-19T05:19:22.489Z,8.87
2018-04-19T05:20:22.559Z,8.88
2018-04-19T05:21:22.637Z,8.93
2018-04-19T05:22:22.625Z,8.93
2018-04-19T05:23:22.676Z,8.94
2018-04-19T05:24:22.721Z,8.97
2018-04-19T05:25:22.769Z,9.04
2018-04-19T05:26:22.841Z,9.06
2018-04-19T05:27:22.860Z,9.09
2018-04-19T05:28:22.931Z,9.12
2018-04-19T05:29:22.950Z,9.23
2018-04-19T05:30:22.996Z,9.23
2018-04-19T05:31:23.042Z,9.25
2018-04-19T05:32:23.089Z,9.28
2018-04-19T05:33:23.161Z,9.35
2018-04-19T05:34:23.185Z,9.28
2018-04-19T05:35:23.228Z,9.40
2018-04-19T05:36:23.277Z,9.45
2018-04-19T05:37:23.323Z,9.48
2018-04-19T05:38:23.400Z,9.53
2018-04-19T05:39:23.413Z,9.70
2018-04-19T05:40:23.464Z,9.71
2018-04-19T05:41:23.508Z,9.76
2018-04-19T05:42:23.553Z,9.73
2018-04-19T05:43:23.626Z,9.78
2018-04-19T05:44:23.649Z,9.82
2018-04-19T05:45:23.694Z,9.82
2018-04-19T05:46:23.742Z,9.86
2018-04-19T05:47:23.785Z,9.82
2018-04-19T05:48:23.857Z,9.81
2018-04-19T05:49:23.904Z,9.89
2018-04-19T05:50:23.928Z,9.96
2018-04-19T05:51:23.973Z,9.94
2018-04-19T05:52:24.021Z,10.00
2018-04-19T05:53:24.067Z,10.04
2018-04-19T05:54:24.146Z,10.09
2018-04-19T05:55:24.159Z,10.07
2018-04-19T05:56:24.215Z,10.12
2018-04-19T05:57:24.256Z,10.26
2018-04-19T05:58:24.301Z,10.33
2018-04-19T05:59:24.383Z,10.33
2018-04-19T06:00:24.395Z,10.46
2018-04-19T06:01:24.444Z,10.44
2018-04-19T06:02:24.489Z,10.55
2018-04-19T06:03:24.538Z,10.63
2018-04-19T06:04:24.605Z,10.65
2018-04-19T06:05:24.672Z,10.70
2018-04-19T06:06:24.678Z,10.65
2018-04-19T06:07:24.724Z,10.74
2018-04-19T06:08:24.774Z,10.81
2018-04-19T06:09:24.827Z,10.86
2018-04-19T06:10:24.898Z,10.95
2018-04-19T06:11:24.912Z,10.92
2018-04-19T06:12:24.960Z,10.98
2018-04-19T06:13:25.007Z,11.06
2018-04-19T06:14:25.056Z,11.09
2018-04-19T06:15:25.127Z,11.17
2018-04-19T06:16:25.177Z,11.29
2018-04-19T06:17:25.199Z,11.31
2018-04-19T06:18:25.244Z,11.43
2018-04-19T06:19:25.290Z,11.50
2018-04-19T06:20:25.338Z,11.52
2018-04-19T06:21:25.411Z,11.50
2018-04-19T06:22:25.436Z,11.59
2018-04-19T06:23:25.479Z,11.61
2018-04-19T06:24:25.529Z,11.72
2018-04-19T06:25:25.576Z,11.75
2018-04-19T06:26:25.654Z,11.83
2018-04-19T06:27:26.690Z,11.89
2018-04-19T06:28:25.717Z,11.90
2018-04-19T06:29:25.769Z,12.02
2018-04-19T06:30:25.864Z,12.06
2018-04-19T06:31:25.896Z,12.15
2018-04-19T06:32:25.909Z,12.31
2018-04-19T06:33:25.961Z,12.37
2018-04-19T06:34:26.004Z,12.41
2018-04-19T06:35:26.053Z,12.54
2018-04-19T06:36:26.140Z,12.62
2018-04-19T06:37:26.148Z,12.70
2018-04-19T06:38:26.197Z,12.82
2018-04-19T06:39:26.252Z,12.92
2018-04-19T06:40:26.292Z,12.93
2018-04-19T06:41:26.391Z,13.07
2018-04-19T06:42:26.388Z,13.17
2018-04-19T06:43:26.436Z,13.49
2018-04-19T06:44:26.486Z,13.95
2018-04-19T06:45:26.541Z,14.90
2018-04-19T06:46:26.612Z,15.89
2018-04-19T06:47:26.630Z,16.98
2018-04-19T06:48:26.679Z,17.62
2018-04-19T06:49:26.728Z,18.15
2018-04-19T06:50:26.824Z,18.62
2018-04-19T06:51:26.848Z,19.18
2018-04-19T06:52:26.873Z,19.57
2018-04-19T06:53:26.957Z,20.10
2018-04-19T06:54:26.972Z,20.27
2018-04-19T06:55:27.021Z,20.00
2018-04-19T06:56:27.075Z,19.80
2018-04-19T06:57:27.119Z,19.91
2018-04-19T06:58:27.201Z,18.84
2018-04-19T06:59:27.220Z,18.92
2018-04-19T07:00:27.270Z,18.86
2018-04-19T07:01:27.319Z,18.83
2018-04-19T07:02:27.395Z,18.83
2018-04-19T07:03:27.418Z,18.94
2018-04-19T07:04:27.495Z,18.97
2018-04-19T07:05:27.523Z,19.28
2018-04-19T07:06:27.573Z,19.53
2018-04-19T07:07:27.621Z,19.46
2018-04-19T07:08:27.671Z,18.94
2018-04-19T07:09:27.746Z,19.32
2018-04-19T07:10:27.777Z,19.70
2018-04-19T07:11:27.822Z,19.83
2018-04-19T07:12:27.879Z,20.24
2018-04-19T07:13:27.948Z,20.87
2018-04-19T07:14:28.023Z,21.11
2018-04-19T07:15:28.032Z,21.48
2018-04-19T07:16:28.077Z,21.67
2018-04-19T07:17:28.130Z,22.16
2018-04-19T07:18:28.200Z,22.07
2018-04-19T07:19:28.232Z,21.75
2018-04-19T07:20:28.290Z,21.85
2018-04-19T07:21:28.328Z,21.85
2018-04-19T07:22:28.384Z,21.57
2018-04-19T07:23:28.476Z,21.09
2018-04-19T07:24:28.484Z,20.65
2018-04-19T07:25:28.535Z,20.69
2018-04-19T07:26:28.587Z,21.14
2018-04-19T07:27:28.638Z,21.64
2018-04-19T07:28:28.712Z,21.17
2018-04-19T07:29:28.740Z,21.16
2018-04-19T07:30:28.795Z,21.19
2018-04-19T07:31:28.849Z,21.06
2018-04-19T07:32:28.898Z,20.90
2018-04-19T07:33:28.975Z,20.69
2018-04-19T07:34:28.998Z,20.23
2018-04-19T07:35:29.048Z,20.03
2018-04-19T07:36:29.099Z,19.33
2018-04-19T07:37:29.152Z,18.92
2018-04-19T07:38:29.241Z,18.95
2018-04-19T07:39:29.257Z,19.43
2018-04-19T07:40:29.306Z,19.53
2018-04-19T07:41:29.357Z,19.58
2018-04-19T07:42:29.413Z,19.68
2018-04-19T07:43:29.484Z,19.55
2018-04-19T07:44:29.539Z,19.10
2018-04-19T07:45:29.565Z,18.59
2018-04-19T07:46:29.619Z,18.39
2018-04-19T07:47:29.669Z,18.74
2018-04-19T07:48:29.718Z,18.82
2018-04-19T07:49:29.799Z,18.68
2018-04-19T07:50:29.857Z,18.74
2018-04-19T07:51:29.921Z,18.87
2018-04-19T07:52:29.926Z,18.98
2018-04-19T07:53:29.975Z,19.36
2018-04-19T07:54:30.053Z,19.55
2018-04-19T07:55:30.099Z,19.32
2018-04-19T07:56:30.128Z,19.13
2018-04-19T07:57:30.180Z,18.84
2018-04-19T07:58:30.239Z,19.17
2018-04-19T07:59:30.285Z,18.92
2018-04-19T08:00:30.358Z,18.67
2018-04-19T08:01:30.387Z,18.76
2018-04-19T08:02:30.436Z,18.84
2018-04-19T08:03:30.493Z,19.14
2018-04-19T08:04:30.541Z,19.51
2018-04-19T08:05:30.663Z,20.16
2018-04-19T08:06:30.642Z,20.65
2018-04-19T08:07:30.696Z,20.90
2018-04-19T08:08:30.749Z,20.83
2018-04-19T08:09:30.797Z,21.08
2018-04-19T08:10:30.889Z,21.35
2018-04-19T08:11:30.946Z,21.21
2018-04-19T08:12:30.954Z,21.48
2018-04-19T08:13:31.000Z,21.44
2018-04-19T08:14:31.055Z,21.79
2018-04-19T08:15:31.128Z,22.14
2018-04-19T08:16:31.159Z,22.32
2018-04-19T08:17:31.233Z,22.41
2018-04-19T08:18:31.261Z,22.56
2018-04-19T08:19:32.013Z,22.87
2018-04-19T08:20:31.369Z,23.01
2018-04-19T08:21:31.448Z,23.11
2018-04-19T08:22:31.471Z,23.12
2018-04-19T08:23:31.523Z,23.27
2018-04-19T08:24:31.615Z,22.57
2018-04-19T08:25:31.628Z,22.49
2018-04-19T08:26:31.722Z,22.43
2018-04-19T08:27:31.734Z,22.28
2018-04-19T08:28:31.785Z,21.79
2018-04-19T08:29:31.839Z,22.12
2018-04-19T08:30:31.896Z,22.39
2018-04-19T08:31:31.975Z,22.65
2018-04-19T08:32:32.001Z,22.69
2018-04-19T08:33:32.055Z,23.17
2018-04-19T08:34:32.106Z,22.67
2018-04-19T08:35:32.157Z,21.24
2018-04-19T08:36:32.244Z,20.87
2018-04-19T08:37:32.264Z,20.69
2018-04-19T08:38:32.360Z,20.87
2018-04-19T08:39:32.378Z,20.79
2018-04-19T08:40:32.424Z,20.62
2018-04-19T08:41:32.477Z,20.86
2018-04-19T08:42:32.536Z,20.90
2018-04-19T08:43:32.641Z,21.04
2018-04-19T08:44:32.662Z,20.81
2018-04-19T08:45:32.692Z,20.79
2018-04-19T08:46:32.752Z,21.11
2018-04-19T08:47:32.796Z,21.45
2018-04-19T08:48:32.893Z,22.12
2018-04-19T08:49:32.902Z,22.39
2018-04-19T08:50:32.960Z,22.44
2018-04-19T08:51:33.011Z,22.68
2018-04-19T08:52:33.062Z,22.80
2018-04-19T08:53:33.163Z,23.05
2018-04-19T08:54:33.172Z,22.32
2018-04-19T08:55:33.224Z,22.16
2018-04-19T08:56:33.279Z,21.91
2018-04-19T08:57:33.331Z,22.01
2018-04-19T08:58:33.408Z,22.34
2018-04-19T08:59:33.439Z,22.02
2018-04-19T09:00:33.493Z,21.79
2018-04-19T09:01:33.545Z,21.90
2018-04-19T09:02:33.600Z,22.10
2018-04-19T09:03:33.701Z,22.29
2018-04-19T09:04:33.707Z,22.75
2018-04-19T09:05:33.763Z,23.19
2018-04-19T09:06:33.817Z,23.65
2018-04-19T09:07:33.869Z,23.89
2018-04-19T09:08:33.950Z,23.92
2018-04-19T09:09:34.003Z,23.62
2018-04-19T09:10:34.035Z,23.46
2018-04-19T09:11:34.086Z,22.87
2018-04-19T09:12:34.144Z,22.69
2018-04-19T09:13:34.254Z,22.77
2018-04-19T09:14:34.292Z,22.01
2018-04-19T09:15:34.318Z,21.82
2018-04-19T09:16:34.357Z,21.21
2018-04-19T09:17:34.416Z,21.16
2018-04-19T09:18:34.474Z,20.81
2018-04-19T09:19:34.559Z,20.64
2018-04-19T09:20:34.577Z,20.99
2018-04-19T09:21:34.629Z,21.34
2018-04-19T09:22:34.686Z,21.90
2018-04-19T09:23:34.739Z,21.78
2018-04-19T09:24:34.824Z,21.11
2018-04-19T09:25:34.847Z,20.79
2018-04-19T09:26:34.917Z,20.86
2018-04-19T09:27:34.956Z,21.39
2018-04-19T09:28:35.016Z,21.97
2018-04-19T09:29:35.569Z,21.23
2018-04-19T09:30:35.147Z,21.29
2018-04-19T09:31:35.171Z,21.51
2018-04-19T09:32:35.225Z,21.46
2018-04-19T09:33:35.280Z,21.14
2018-04-19T09:34:35.344Z,20.79
2018-04-19T09:35:35.419Z,20.77
2018-04-19T09:36:35.443Z,20.80
2018-04-19T09:37:35.496Z,20.61
2018-04-19T09:38:35.550Z,20.77
2018-04-19T09:39:35.645Z,21.04
2018-04-19T09:40:35.689Z,21.06
2018-04-19T09:41:35.715Z,20.39
2018-04-19T09:42:35.766Z,20.42
2018-04-19T09:43:35.818Z,20.50
2018-04-19T09:44:35.872Z,20.69
2018-04-19T09:45:35.967Z,21.05
2018-04-19T09:46:36.010Z,20.80
2018-04-19T09:47:36.034Z,20.69
2018-04-19T09:48:36.097Z,19.95
2018-04-19T09:49:36.141Z,19.60
2018-04-19T09:50:36.219Z,19.42
2018-04-19T09:51:36.275Z,19.54
2018-04-19T09:52:36.301Z,19.53
2018-04-19T09:53:36.358Z,19.40
2018-04-19T09:54:36.413Z,19.70
2018-04-19T09:55:36.460Z,19.80
2018-04-19T09:56:36.562Z,19.80
2018-04-19T09:57:36.568Z,20.00
2018-04-19T09:58:36.683Z,20.08
2018-04-19T09:59:36.676Z,20.30
2018-04-19T10:00:36.728Z,20.61
2018-04-19T10:01:36.819Z,20.72
2018-04-19T10:02:36.848Z,20.99
2018-04-19T10:03:36.887Z,21.48
2018-04-19T10:04:36.941Z,21.81
2018-04-19T10:05:36.996Z,21.97
2018-04-19T10:06:37.072Z,21.36
2018-04-19T10:07:37.109Z,21.46
2018-04-19T10:08:37.157Z,21.36
2018-04-19T10:09:37.213Z,21.27
2018-04-19T10:10:37.267Z,21.45
2018-04-19T10:11:37.345Z,20.90
2018-04-19T10:12:37.368Z,20.81
2018-04-19T10:13:37.425Z,20.81
2018-04-19T10:14:37.480Z,20.20
2018-04-19T10:15:37.529Z,20.10
2018-04-19T10:16:37.613Z,20.28
2018-04-19T10:17:37.679Z,20.47
2018-04-19T10:18:37.696Z,21.11
2018-04-19T10:19:37.747Z,21.72
2018-04-19T10:20:37.800Z,21.98
2018-04-19T10:21:37.854Z,22.29
2018-04-19T10:22:37.937Z,22.39
2018-04-19T10:23:37.966Z,22.02
2018-04-19T10:24:38.015Z,21.69
2018-04-19T10:25:38.074Z,21.34
2018-04-19T10:26:38.128Z,21.39
2018-04-19T10:27:38.216Z,21.81
2018-04-19T10:28:38.231Z,21.91
2018-04-19T10:29:38.286Z,21.81
2018-04-19T10:30:38.342Z,21.64
2018-04-19T10:31:38.403Z,20.93
2018-04-19T10:32:38.490Z,21.26
2018-04-19T10:33:38.504Z,21.61
2018-04-19T10:34:38.562Z,21.91
2018-04-19T10:35:38.612Z,22.35
2018-04-19T10:36:38.670Z,22.82
2018-04-19T10:37:38.751Z,22.68
2018-04-19T10:38:38.775Z,22.29
2018-04-19T10:39:38.829Z,22.52
2018-04-19T10:40:38.884Z,22.82
2018-04-19T10:41:38.938Z,22.87
2018-04-19T10:42:39.031Z,23.17
2018-04-19T10:43:39.051Z,23.23
2018-04-19T10:44:39.110Z,23.05
2018-04-19T10:45:39.158Z,22.31
2018-04-19T10:46:39.216Z,21.32
2018-04-19T10:47:39.315Z,21.02
2018-04-19T10:48:39.328Z,20.96
2018-04-19T10:49:39.378Z,20.23
2018-04-19T10:50:39.433Z,19.53
2018-04-19T10:51:39.488Z,19.76
2018-04-19T10:52:39.578Z,20.24
2018-04-19T10:53:39.597Z,20.25
2018-04-19T10:54:39.653Z,20.33
2018-04-19T10:55:39.709Z,20.61
2018-04-19T10:56:39.762Z,20.89
2018-04-19T10:57:39.850Z,20.98
2018-04-19T10:58:39.875Z,20.93
2018-04-19T10:59:39.924Z,20.91
2018-04-19T11:00:39.983Z,20.80
2018-04-19T11:01:40.043Z,20.64
2018-04-19T11:02:40.165Z,20.99
2018-04-19T11:03:40.146Z,21.53
2018-04-19T11:04:40.199Z,21.08
2018-04-19T11:05:40.263Z,20.93
2018-04-19T11:06:40.309Z,20.72
2018-04-19T11:07:40.392Z,21.02
2018-04-19T11:08:40.465Z,21.08
2018-04-19T11:09:40.469Z,21.35
2018-04-19T11:10:40.526Z,22.04
2018-04-19T11:11:40.584Z,22.29
2018-04-19T11:12:40.662Z,22.28
2018-04-19T11:13:40.688Z,22.46
2018-04-19T11:14:40.744Z,22.74
2018-04-19T11:15:40.796Z,22.84
2018-04-19T11:16:40.856Z,22.92
2018-04-19T11:17:40.945Z,23.09
2018-04-19T11:18:40.970Z,22.90
2018-04-19T11:19:41.018Z,23.05
2018-04-19T11:20:41.080Z,23.35
2018-04-19T11:21:41.127Z,22.99
2018-04-19T11:22:41.217Z,21.95
2018-04-19T11:23:41.236Z,21.53
2018-04-19T11:24:41.291Z,21.05
2018-04-19T11:25:41.347Z,21.32
2018-04-19T11:26:41.402Z,21.76
2018-04-19T11:27:41.480Z,22.09
2018-04-19T11:28:41.514Z,22.27
2018-04-19T11:29:41.594Z,22.64
2018-04-19T11:30:41.626Z,23.20
2018-04-19T11:31:41.681Z,23.35
2018-04-19T11:32:41.735Z,22.53
2018-04-19T11:33:41.816Z,22.41
2018-04-19T11:34:41.853Z,21.82
2018-04-19T11:35:41.928Z,21.67
2018-04-19T11:36:41.995Z,21.11
2018-04-19T11:37:42.017Z,21.50
2018-04-19T11:38:42.075Z,22.13
2018-04-19T11:39:42.127Z,21.94
2018-04-19T11:40:42.210Z,22.10
2018-04-19T11:41:42.241Z,22.12
2018-04-19T11:42:42.296Z,21.56
2018-04-19T11:43:42.353Z,21.56
2018-04-19T11:44:42.432Z,21.99
2018-04-19T11:45:42.464Z,22.06
2018-04-19T11:46:42.546Z,21.72
2018-04-19T11:47:42.576Z,21.36
2018-04-19T11:48:42.643Z,21.71
2018-04-19T11:49:42.712Z,22.07
2018-04-19T11:50:42.745Z,21.95
2018-04-19T11:51:42.827Z,22.14
2018-04-19T11:52:42.865Z,22.53
2018-04-19T11:53:42.914Z,22.89
2018-04-19T11:54:42.969Z,22.87
2018-04-19T11:55:43.026Z,22.65
2018-04-19T11:56:43.114Z,22.39
2018-04-19T11:57:43.143Z,22.84
2018-04-19T11:58:43.196Z,23.04
2018-04-19T11:59:43.251Z,23.19
2018-04-19T12:00:43.309Z,23.22
2018-04-19T12:01:43.397Z,22.59
2018-04-19T12:02:43.422Z,22.28
2018-04-19T12:03:43.486Z,22.23
2018-04-19T12:04:43.537Z,21.94
2018-04-19T12:05:43.592Z,22.16
2018-04-19T12:06:43.673Z,22.56
2018-04-19T12:07:43.736Z,22.78
2018-04-19T12:08:43.765Z,23.35
2018-04-19T12:09:43.822Z,23.08
2018-04-19T12:10:43.879Z,23.23
2018-04-19T12:11:43.937Z,22.62
2018-04-19T12:12:44.034Z,22.43
2018-04-19T12:13:44.075Z,22.14
2018-04-19T12:14:44.109Z,22.62
2018-04-19T12:15:44.166Z,22.96
2018-04-19T12:16:44.221Z,23.05
2018-04-19T12:17:44.312Z,23.15
2018-04-19T12:18:44.337Z,23.20
2018-04-19T12:19:44.397Z,23.24
2018-04-19T12:20:44.460Z,23.42
2018-04-19T12:21:44.511Z,23.76
2018-04-19T12:22:44.609Z,23.98
2018-04-19T12:23:44.626Z,23.80
2018-04-19T12:24:44.688Z,23.87
2018-04-19T12:25:44.741Z,24.13
2018-04-19T12:26:44.805Z,24.12
2018-04-19T12:27:44.890Z,24.23
2018-04-19T12:28:44.917Z,24.14
2018-04-19T12:29:44.974Z,23.82
2018-04-19T12:30:45.035Z,23.24
2018-04-19T12:31:45.094Z,23.27
2018-04-19T12:32:45.174Z,22.80
2018-04-19T12:33:45.234Z,22.44
2018-04-19T12:34:45.267Z,22.17
2018-04-19T12:35:45.326Z,22.28
2018-04-19T12:36:45.383Z,22.49
2018-04-19T12:37:46.319Z,22.97
2018-04-19T12:38:45.531Z,23.47
2018-04-19T12:39:45.560Z,23.38
2018-04-19T12:40:45.620Z,22.99
2018-04-19T12:41:45.678Z,23.08
2018-04-19T12:42:45.743Z,22.94
2018-04-19T12:43:45.824Z,22.89
2018-04-19T12:44:45.880Z,22.97
2018-04-19T12:45:45.915Z,23.05
2018-04-19T12:46:45.975Z,23.29
2018-04-19T12:47:46.031Z,23.26
2018-04-19T12:48:46.117Z,23.09
2018-04-19T12:49:47.123Z,23.07
2018-04-19T12:50:46.209Z,22.92
2018-04-19T12:51:46.270Z,22.94
2018-04-19T12:52:46.326Z,23.01
2018-04-19T12:53:46.411Z,22.50
2018-04-19T12:54:46.445Z,22.31
2018-04-19T12:55:46.502Z,22.14
2018-04-19T12:56:46.562Z,22.01